Time;durP1;ratioP1;P1;durP2;ratioP2;P2;SDS_P1;SDS_P2;PMS_P1;PMS_P2;Temp;Humidity;BMP_temperature;BMP_pressure;BME280_temperature;BME280_humidity;BME280_pressure;Samples;Min_cycle;Max_cycle;Signal;HPM_P1;HPM_P2
2020/12/09 00:02:19;;;;;;;40.87;27.67;;;3.10;99.90;;;;;;4991340;28;20205;-70
2020/12/09 00:04:46;;;;;;;45.07;27.90;;;3.10;99.90;;;;;;4991423;28;20184;-71
2020/12/09 00:07:12;;;;;;;45.57;28.53;;;3.10;99.90;;;;;;4991348;28;20247;-70
2020/12/09 00:09:37;;;;;;;42.70;25.73;;;3.10;99.90;;;;;;4990505;28;20541;-71
2020/12/09 00:12:03;;;;;;;47.83;28.70;;;3.10;99.90;;;;;;4990898;28;20175;-71
2020/12/09 00:14:29;;;;;;;46.83;27.33;;;3.00;99.90;;;;;;4991553;28;20172;-71
2020/12/09 00:16:54;;;;;;;48.30;27.77;;;3.00;99.90;;;;;;4991134;28;20180;-70
2020/12/09 00:19:20;;;;;;;40.30;26.30;;;3.00;99.90;;;;;;4990617;28;20379;-70
2020/12/09 00:21:45;;;;;;;39.83;26.70;;;3.10;99.90;;;;;;4991044;28;20188;-70
2020/12/09 00:24:11;;;;;;;40.87;24.27;;;3.20;99.90;;;;;;4991171;28;20554;-71
2020/12/09 00:26:36;;;;;;;44.47;27.67;;;3.30;99.90;;;;;;4990814;28;20638;-71
2020/12/09 00:29:05;;;;;;;42.73;26.80;;;3.30;99.90;;;;;;4990315;28;20685;-70
2020/12/09 00:31:31;;;;;;;44.33;25.80;;;3.30;99.90;;;;;;4991391;28;20700;-71
2020/12/09 00:33:59;;;;;;;38.03;25.53;;;3.30;99.90;;;;;;4991309;28;20422;-71
2020/12/09 00:36:24;;;;;;;44.43;26.87;;;3.30;99.90;;;;;;4990712;28;20970;-71
2020/12/09 00:38:51;;;;;;;41.57;26.50;;;3.30;99.90;;;;;;4990204;28;20462;-71
2020/12/09 00:41:19;;;;;;;41.10;27.57;;;3.40;99.90;;;;;;4991007;28;20677;-71
2020/12/09 00:43:45;;;;;;;42.70;26.73;;;3.30;99.90;;;;;;4990871;28;20497;-71
2020/12/09 00:46:26;;;;;;;42.97;28.10;;;3.30;99.90;;;;;;4990658;28;20475;-71
2020/12/09 00:48:52;;;;;;;43.37;28.07;;;3.20;99.90;;;;;;4990318;28;20542;-71
2020/12/09 00:51:22;;;;;;;41.17;27.40;;;3.30;99.90;;;;;;4991216;28;20437;-70
2020/12/09 00:53:48;;;;;;;42.37;26.73;;;3.30;99.90;;;;;;4990850;28;20513;-70
2020/12/09 00:56:14;;;;;;;42.33;27.40;;;3.20;99.90;;;;;;4991307;28;20466;-71
2020/12/09 00:58:39;;;;;;;44.00;28.03;;;3.20;99.90;;;;;;4989791;28;20207;-71
2020/12/09 01:01:06;;;;;;;40.70;26.77;;;3.10;99.90;;;;;;4990762;28;20226;-71
2020/12/09 01:03:32;;;;;;;43.07;27.40;;;3.20;99.90;;;;;;4991289;28;20190;-71
2020/12/09 01:05:59;;;;;;;42.67;26.40;;;3.20;99.90;;;;;;4991013;28;20430;-71
2020/12/09 01:08:24;;;;;;;39.83;26.77;;;3.20;99.90;;;;;;4989973;28;20752;-70
2020/12/09 01:10:50;;;;;;;46.60;27.77;;;3.20;99.90;;;;;;4985285;28;20435;-71
2020/12/09 01:13:16;;;;;;;41.57;26.20;;;3.20;99.90;;;;;;4990573;28;20465;-71
2020/12/09 01:15:42;;;;;;;44.30;28.00;;;3.30;99.90;;;;;;4990938;28;20182;-70
2020/12/09 01:18:08;;;;;;;38.00;25.73;;;3.30;99.90;;;;;;4990690;28;20469;-71
2020/12/09 01:20:34;;;;;;;46.03;26.80;;;3.40;99.90;;;;;;4992980;28;20442;-70
2020/12/09 01:22:59;;;;;;;46.50;28.20;;;3.40;99.90;;;;;;4994403;28;20217;-70
2020/12/09 01:25:25;;;;;;;41.07;24.50;;;3.40;99.90;;;;;;4995018;28;20258;-71
2020/12/09 01:27:50;;;;;;;44.23;26.47;;;3.40;99.90;;;;;;4993486;28;20214;-71
2020/12/09 01:30:16;;;;;;;40.67;27.73;;;3.40;99.90;;;;;;4994291;28;20167;-71
2020/12/09 01:32:41;;;;;;;40.77;25.80;;;3.50;99.90;;;;;;4994272;28;20179;-71
2020/12/09 01:35:07;;;;;;;42.93;26.87;;;3.40;99.90;;;;;;4994226;28;20200;-70
2020/12/09 01:37:33;;;;;;;40.00;26.70;;;3.40;99.90;;;;;;4992537;28;20171;-71
2020/12/09 01:39:58;;;;;;;40.10;26.23;;;3.50;99.90;;;;;;4993399;28;20339;-71
2020/12/09 01:42:24;;;;;;;47.50;27.60;;;3.50;99.90;;;;;;4994318;28;20603;-70
2020/12/09 01:44:49;;;;;;;43.10;25.27;;;3.40;99.90;;;;;;4993693;28;20638;-70
2020/12/09 01:47:15;;;;;;;45.73;27.07;;;3.50;99.90;;;;;;4994209;28;20538;-70
2020/12/09 01:49:41;;;;;;;40.17;25.70;;;3.50;99.90;;;;;;4993330;28;20491;-70
2020/12/09 01:52:06;;;;;;;43.40;27.47;;;3.50;99.90;;;;;;4994183;28;20279;-70
2020/12/09 01:54:32;;;;;;;36.70;25.37;;;3.50;99.90;;;;;;4993718;28;20612;-71
2020/12/09 01:57:06;;;;;;;42.90;27.53;;;3.40;99.90;;;;;;4992232;28;20180;-71
2020/12/09 01:59:32;;;;;;;39.27;24.83;;;3.40;99.90;;;;;;4984980;28;20440;-71
2020/12/09 02:01:58;;;;;;;49.07;27.97;;;3.40;99.90;;;;;;4988812;28;20791;-71
2020/12/09 02:04:24;;;;;;;39.37;24.70;;;3.40;99.90;;;;;;4993527;28;20176;-70
2020/12/09 02:06:52;;;;;;;42.20;27.70;;;3.40;99.90;;;;;;4993372;28;20434;-70
2020/12/09 02:09:18;;;;;;;42.03;26.80;;;3.40;99.90;;;;;;4992550;28;20211;-71
2020/12/09 02:11:45;;;;;;;43.73;28.03;;;3.50;99.90;;;;;;4993462;28;20445;-71
2020/12/09 02:14:10;;;;;;;40.80;27.57;;;3.50;99.90;;;;;;4993369;28;20445;-71
2020/12/09 02:16:36;;;;;;;42.63;27.07;;;3.50;99.90;;;;;;4993481;28;20517;-71
2020/12/09 02:19:01;;;;;;;47.17;26.90;;;3.50;99.90;;;;;;4992094;28;20226;-70
2020/12/09 02:21:27;;;;;;;49.47;28.20;;;3.50;99.90;;;;;;4993399;28;20691;-71
2020/12/09 02:23:52;;;;;;;46.03;26.97;;;3.60;99.90;;;;;;4993446;28;20193;-70
2020/12/09 02:26:18;;;;;;;41.17;26.10;;;3.60;99.90;;;;;;4993249;28;20183;-71
2020/12/09 02:28:43;;;;;;;43.73;27.40;;;3.50;99.90;;;;;;4992468;28;20215;-70
2020/12/09 02:31:09;;;;;;;43.03;28.13;;;3.60;99.90;;;;;;4993220;28;20591;-70
2020/12/09 02:33:34;;;;;;;41.90;28.77;;;3.60;99.90;;;;;;4991997;28;20172;-71
2020/12/09 02:36:00;;;;;;;43.80;27.53;;;3.60;99.90;;;;;;4993328;28;20176;-70
2020/12/09 02:38:26;;;;;;;38.67;26.37;;;3.70;99.90;;;;;;4992284;28;20239;-71
2020/12/09 02:40:51;;;;;;;44.67;27.57;;;3.60;99.90;;;;;;4993197;28;20183;-71
2020/12/09 02:43:17;;;;;;;37.87;27.30;;;3.70;99.90;;;;;;4992777;28;20653;-71
2020/12/09 02:45:42;;;;;;;45.80;26.30;;;3.70;99.90;;;;;;4992938;28;20194;-71
2020/12/09 02:48:08;;;;;;;49.53;29.03;;;3.70;99.90;;;;;;4992166;28;20241;-71
2020/12/09 02:50:33;;;;;;;42.87;27.40;;;3.80;99.90;;;;;;4993012;28;20179;-71
2020/12/09 02:52:59;;;;;;;46.67;29.13;;;3.80;99.90;;;;;;4992463;28;20185;-71
2020/12/09 02:55:24;;;;;;;40.13;26.67;;;3.70;99.90;;;;;;4991808;28;20334;-71
2020/12/09 02:57:50;;;;;;;46.03;29.67;;;3.70;99.90;;;;;;4991618;28;20194;-71
2020/12/09 03:00:16;;;;;;;42.03;27.20;;;3.80;99.90;;;;;;4992509;28;20190;-71
2020/12/09 03:02:41;;;;;;;46.90;29.30;;;3.70;99.90;;;;;;4992529;28;20266;-70
2020/12/09 03:05:08;;;;;;;42.67;25.83;;;3.80;99.90;;;;;;4992703;28;20272;-71
2020/12/09 03:07:33;;;;;;;44.83;28.30;;;3.70;99.90;;;;;;4991029;28;20206;-71
2020/12/09 03:09:59;;;;;;;41.97;29.03;;;3.70;99.90;;;;;;4990247;28;20454;-70
2020/12/09 03:12:24;;;;;;;43.03;27.07;;;3.70;99.90;;;;;;4992978;28;20183;-71
2020/12/09 03:14:50;;;;;;;46.63;28.10;;;3.70;99.90;;;;;;4991591;28;20172;-70
2020/12/09 03:17:15;;;;;;;49.70;27.90;;;3.70;99.90;;;;;;4991815;28;20171;-70
2020/12/09 03:19:41;;;;;;;45.70;28.93;;;3.80;99.90;;;;;;4991598;28;20685;-70
2020/12/09 03:22:06;;;;;;;44.80;28.97;;;3.70;99.90;;;;;;4992157;28;20184;-70
2020/12/09 03:24:32;;;;;;;46.37;30.00;;;3.70;99.90;;;;;;4991816;28;20180;-71
2020/12/09 03:26:57;;;;;;;45.77;27.90;;;3.60;99.90;;;;;;4992364;28;20172;-70
2020/12/09 03:29:23;;;;;;;44.47;28.80;;;3.60;99.90;;;;;;4985651;28;20261;-70
2020/12/09 03:31:49;;;;;;;44.43;27.10;;;3.60;99.90;;;;;;4990564;28;20532;-71
2020/12/09 03:34:14;;;;;;;49.87;32.10;;;3.60;99.90;;;;;;4992153;28;20179;-71
2020/12/09 03:36:40;;;;;;;46.70;28.17;;;3.60;99.90;;;;;;4992693;28;20178;-70
2020/12/09 03:39:05;;;;;;;41.93;29.10;;;3.70;99.90;;;;;;4991393;28;20195;-71
2020/12/09 03:41:31;;;;;;;45.63;28.27;;;3.70;99.90;;;;;;4991960;28;20229;-70
2020/12/09 03:43:56;;;;;;;46.63;29.57;;;3.60;99.90;;;;;;4991883;28;20180;-71
2020/12/09 03:46:22;;;;;;;44.60;26.43;;;3.60;99.90;;;;;;4992284;28;20546;-70
2020/12/09 03:48:47;;;;;;;48.37;29.73;;;3.70;99.90;;;;;;4990629;28;20203;-71
2020/12/09 03:51:13;;;;;;;51.97;30.10;;;3.60;99.90;;;;;;4992039;28;20175;-70
2020/12/09 03:53:38;;;;;;;43.43;28.80;;;3.70;99.90;;;;;;4991666;28;20214;-70
2020/12/09 03:56:04;;;;;;;45.20;28.80;;;3.70;99.90;;;;;;4991439;28;20544;-70
2020/12/09 03:58:30;;;;;;;41.63;26.90;;;3.60;99.90;;;;;;4990583;28;20214;-70
2020/12/09 04:00:56;;;;;;;49.70;29.37;;;3.60;99.90;;;;;;4991424;28;20529;-70
2020/12/09 04:03:21;;;;;;;47.60;30.30;;;3.60;99.90;;;;;;4991673;28;20194;-70
2020/12/09 04:05:47;;;;;;;50.80;30.00;;;3.40;99.90;;;;;;4991635;28;20768;-70
2020/12/09 04:08:12;;;;;;;46.40;28.80;;;3.40;99.90;;;;;;4989467;28;20427;-71
2020/12/09 04:10:38;;;;;;;41.57;30.37;;;3.30;99.90;;;;;;4987996;28;20661;-71
2020/12/09 04:13:03;;;;;;;45.30;29.83;;;3.40;99.90;;;;;;4985861;28;20174;-70
2020/12/09 04:15:29;;;;;;;58.80;36.33;;;3.40;99.90;;;;;;4991206;28;20195;-70
2020/12/09 04:17:54;;;;;;;50.43;31.20;;;3.40;99.90;;;;;;4990499;28;20589;-70
2020/12/09 04:20:20;;;;;;;50.83;30.47;;;3.40;99.90;;;;;;4991467;28;20187;-70
2020/12/09 04:22:45;;;;;;;49.50;32.10;;;3.50;99.90;;;;;;4991388;28;20271;-70
2020/12/09 04:25:11;;;;;;;54.33;29.93;;;3.50;99.90;;;;;;4991227;28;20214;-71
2020/12/09 04:27:36;;;;;;;46.87;31.40;;;3.50;99.90;;;;;;4990652;28;20206;-71
2020/12/09 04:30:03;;;;;;;53.20;29.43;;;3.50;99.90;;;;;;4990955;28;20203;-71
2020/12/09 04:32:29;;;;;;;48.10;30.83;;;3.50;99.90;;;;;;4990718;28;20527;-70
2020/12/09 04:34:58;;;;;;;49.40;27.93;;;3.50;99.90;;;;;;4990620;28;20441;-71
2020/12/09 04:37:27;;;;;;;51.03;30.27;;;3.50;99.90;;;;;;4991167;28;20668;-71
2020/12/09 04:39:54;;;;;;;48.67;30.30;;;3.40;99.90;;;;;;4989930;28;20814;-70
2020/12/09 04:42:21;;;;;;;50.93;30.00;;;3.40;99.90;;;;;;4991236;28;20435;-70
2020/12/09 04:44:48;;;;;;;47.27;29.13;;;3.40;99.90;;;;;;4991072;28;20955;-70
2020/12/09 04:47:28;;;;;;;50.50;31.00;;;3.40;99.90;;;;;;4990943;28;20441;-70
2020/12/09 04:50:09;;;;;;;50.87;30.27;;;3.40;99.90;;;;;;4989964;28;20796;-70
2020/12/09 04:52:46;;;;;;;47.33;28.80;;;3.40;99.90;;;;;;4989960;28;20932;-70
2020/12/09 04:55:17;;;;;;;54.43;35.00;;;3.30;99.90;;;;;;4991225;28;20804;-70
2020/12/09 04:58:20;;;;;;;52.80;31.57;;;3.30;99.90;;;;;;4989930;28;20434;-70
2020/12/09 05:00:47;;;;;;;41.30;29.63;;;3.30;99.90;;;;;;4952201;28;20458;-70
2020/12/09 05:03:20;;;;;;;56.30;33.50;;;3.30;99.90;;;;;;4986265;28;20438;-70
2020/12/09 05:05:47;;;;;;;53.27;33.00;;;3.30;99.90;;;;;;4990904;28;20441;-70
2020/12/09 05:08:18;;;;;;;51.77;34.20;;;3.30;99.90;;;;;;4990006;28;20465;-71
2020/12/09 05:10:46;;;;;;;46.93;31.73;;;3.30;99.90;;;;;;4989846;28;20427;-70
2020/12/09 05:13:26;;;;;;;49.77;31.70;;;3.30;99.90;;;;;;4990562;28;20427;-70
2020/12/09 05:15:57;;;;;;;48.80;28.77;;;3.40;99.90;;;;;;4979538;28;20497;-70
2020/12/09 05:18:43;;;;;;;54.97;30.93;;;3.40;99.90;;;;;;4986662;28;20470;-70
2020/12/09 05:21:15;;;;;;;46.80;28.50;;;3.40;99.90;;;;;;4992832;23;20522;-65
2020/12/09 05:23:55;;;;;;;48.23;31.03;;;3.40;99.90;;;;;;4971367;28;20458;-65
2020/12/09 05:26:25;;;;;;;45.40;28.70;;;3.40;99.90;;;;;;4970913;28;20431;-65
2020/12/09 05:29:08;;;;;;;48.43;31.87;;;3.30;99.90;;;;;;4963375;28;20893;-65
2020/12/09 05:31:36;;;;;;;44.73;31.40;;;3.30;99.90;;;;;;4945837;28;20428;-65
2020/12/09 05:34:03;;;;;;;44.70;27.93;;;3.30;99.90;;;;;;4951221;28;20513;-65
2020/12/09 05:36:45;;;;;;;44.73;27.33;;;3.20;99.90;;;;;;4936719;28;20516;-65
2020/12/09 05:39:10;;;;;;;45.50;27.40;;;3.30;99.90;;;;;;4940297;29;21056;-65
2020/12/09 05:41:36;;;;;;;45.30;28.70;;;3.30;99.90;;;;;;4940678;29;20448;-65
2020/12/09 05:44:03;;;;;;;44.93;26.50;;;3.30;99.90;;;;;;4951672;28;20212;-65
2020/12/09 05:46:29;;;;;;;46.33;28.77;;;3.30;99.90;;;;;;4950828;29;20192;-65
2020/12/09 05:48:55;;;;;;;38.90;26.47;;;3.30;99.90;;;;;;4941368;28;20469;-65
2020/12/09 05:51:21;;;;;;;38.10;25.87;;;3.30;99.90;;;;;;4951570;28;20224;-65
2020/12/09 05:53:47;;;;;;;45.90;28.90;;;3.30;99.90;;;;;;4950690;28;20716;-65
2020/12/09 05:56:13;;;;;;;43.77;28.17;;;3.30;99.90;;;;;;4947428;29;20169;-65
2020/12/09 05:58:41;;;;;;;46.27;28.30;;;3.40;99.90;;;;;;4949217;28;20439;-65
2020/12/09 06:01:18;;;;;;;43.47;26.50;;;3.30;99.90;;;;;;4946836;29;20460;-65
2020/12/09 06:03:52;;;;;;;45.17;27.97;;;3.20;99.90;;;;;;4944611;28;20979;-65
2020/12/09 06:06:21;;;;;;;42.87;28.30;;;3.10;99.90;;;;;;4939587;29;20469;-65
2020/12/09 06:08:54;;;;;;;46.03;29.80;;;3.10;99.90;;;;;;4953289;29;20475;-65
2020/12/09 06:11:37;;;;;;;39.93;27.07;;;3.00;99.90;;;;;;4954398;28;20452;-65
2020/12/09 06:14:03;;;;;;;44.73;28.40;;;3.20;99.90;;;;;;4951204;28;20463;-65
2020/12/09 06:16:28;;;;;;;42.63;26.37;;;3.20;99.90;;;;;;4948682;29;21979;-65
2020/12/09 06:18:56;;;;;;;42.70;26.87;;;3.10;99.90;;;;;;4946528;29;20228;-65
2020/12/09 06:21:23;;;;;;;48.10;29.33;;;3.10;99.90;;;;;;4952130;28;20588;-65
2020/12/09 06:23:52;;;;;;;48.13;28.40;;;3.20;99.90;;;;;;4944797;28;20515;-65
2020/12/09 06:26:18;;;;;;;47.20;29.00;;;3.20;99.90;;;;;;4951452;28;20429;-65
2020/12/09 06:28:49;;;;;;;48.63;28.20;;;3.20;99.90;;;;;;4946338;29;20467;-65
2020/12/09 06:31:20;;;;;;;40.87;26.20;;;3.30;99.90;;;;;;4949591;28;20527;-65
2020/12/09 06:33:56;;;;;;;42.17;27.23;;;3.30;99.90;;;;;;4937375;28;20434;-65
2020/12/09 06:36:26;;;;;;;45.53;29.67;;;3.30;99.90;;;;;;4943317;29;20464;-65
2020/12/09 06:39:15;;;;;;;51.40;28.53;;;3.20;99.90;;;;;;4954115;28;20479;-65
2020/12/09 06:42:01;;;;;;;41.80;28.27;;;3.30;99.90;;;;;;4935975;29;20834;-65
2020/12/09 06:44:30;;;;;;;56.47;27.80;;;3.30;99.90;;;;;;4935919;29;20440;-65
2020/12/09 06:46:57;;;;;;;41.37;27.27;;;3.30;99.90;;;;;;4943522;29;20428;-65
2020/12/09 06:49:29;;;;;;;53.03;29.53;;;3.30;99.90;;;;;;4953767;28;20464;-68
2020/12/09 06:51:58;;;;;;;43.70;28.97;;;3.30;99.90;;;;;;4940896;28;20524;-65
2020/12/09 06:54:37;;;;;;;45.47;30.20;;;3.30;99.90;;;;;;4943275;29;20438;-65
2020/12/09 06:57:18;;;;;;;45.20;28.70;;;3.30;99.90;;;;;;4949843;28;20817;-65
2020/12/09 06:59:48;;;;;;;45.17;28.30;;;3.40;99.90;;;;;;4934595;29;20989;-65
2020/12/09 07:02:28;;;;;;;42.53;28.07;;;3.40;99.90;;;;;;4942870;29;20804;-65
2020/12/09 07:04:54;;;;;;;38.90;26.53;;;3.40;99.90;;;;;;4943944;29;20470;-65
2020/12/09 07:08:04;;;;;;;43.30;28.20;;;3.40;99.90;;;;;;4946171;28;20433;-65
2020/12/09 07:10:31;;;;;;;38.77;25.97;;;3.40;99.90;;;;;;4863159;29;20692;-65
2020/12/09 07:13:06;;;;;;;43.40;27.60;;;3.40;99.90;;;;;;4878422;29;20478;-65
2020/12/09 07:15:31;;;;;;;43.47;27.23;;;3.40;99.90;;;;;;4919834;28;21182;-65
2020/12/09 07:17:57;;;;;;;45.57;28.77;;;3.40;99.90;;;;;;4950692;29;20472;-65
2020/12/09 07:20:23;;;;;;;40.30;26.63;;;3.30;99.90;;;;;;4938572;29;20213;-65
2020/12/09 07:22:49;;;;;;;42.10;26.30;;;3.30;99.90;;;;;;4946741;29;20440;-65
2020/12/09 07:25:15;;;;;;;45.00;29.37;;;3.30;99.90;;;;;;4948747;28;20443;-65
2020/12/09 07:27:42;;;;;;;45.00;30.03;;;3.30;99.90;;;;;;4949261;28;20339;-65
2020/12/09 07:30:13;;;;;;;52.87;31.10;;;3.20;99.90;;;;;;4934695;28;20463;-65
2020/12/09 07:32:39;;;;;;;49.80;30.83;;;3.30;99.90;;;;;;4939674;28;20445;-65
2020/12/09 07:35:07;;;;;;;42.67;28.50;;;3.40;99.90;;;;;;4953279;28;20434;-65
2020/12/09 07:37:38;;;;;;;43.83;28.53;;;3.40;99.90;;;;;;4939635;29;20244;-65
2020/12/09 07:40:25;;;;;;;44.73;28.30;;;3.40;99.90;;;;;;4955086;28;20479;-65
2020/12/09 07:43:13;;;;;;;46.83;28.77;;;3.40;99.90;;;;;;4964851;28;20940;-65
2020/12/09 07:45:41;;;;;;;40.77;27.10;;;3.40;99.90;;;;;;4938272;29;20934;-65
2020/12/09 07:48:12;;;;;;;47.13;30.47;;;3.40;99.90;;;;;;4948822;29;20496;-65
2020/12/09 07:50:39;;;;;;;51.07;29.90;;;3.50;99.90;;;;;;4941561;28;20490;-65
2020/12/09 07:53:11;;;;;;;53.03;32.87;;;3.40;99.90;;;;;;4945538;28;20463;-65
2020/12/09 07:55:37;;;;;;;41.87;28.93;;;3.40;99.90;;;;;;4947037;29;20452;-65
2020/12/09 07:58:11;;;;;;;45.57;30.30;;;3.40;99.90;;;;;;4943870;28;20444;-65
2020/12/09 08:00:40;;;;;;;47.23;30.83;;;3.30;99.90;;;;;;4948322;28;20259;-66
2020/12/09 08:03:15;;;;;;;45.87;30.07;;;3.40;99.90;;;;;;4947865;28;21040;-65
2020/12/09 08:05:40;;;;;;;48.53;32.03;;;3.40;99.90;;;;;;4947215;29;20439;-64
2020/12/09 08:08:15;;;;;;;46.60;31.07;;;3.30;99.90;;;;;;4948854;29;20541;-65
2020/12/09 08:10:44;;;;;;;47.10;29.03;;;3.40;99.90;;;;;;4949726;28;20215;-66
2020/12/09 08:13:20;;;;;;;45.80;28.73;;;3.40;99.90;;;;;;4939383;29;20433;-66
2020/12/09 08:15:58;;;;;;;46.00;29.67;;;3.50;99.90;;;;;;4953406;28;20439;-66
2020/12/09 08:18:24;;;;;;;41.20;28.30;;;3.50;99.90;;;;;;4957938;28;20534;-65
2020/12/09 08:20:51;;;;;;;44.67;28.13;;;3.50;99.90;;;;;;4937389;28;20477;-66
2020/12/09 08:23:17;;;;;;;41.63;28.70;;;3.40;99.90;;;;;;4937757;29;20185;-66
2020/12/09 08:25:48;;;;;;;44.00;28.63;;;3.30;99.90;;;;;;4941625;28;20448;-65
2020/12/09 08:28:18;;;;;;;44.20;28.70;;;3.30;99.90;;;;;;4944291;28;20468;-65
2020/12/09 08:30:44;;;;;;;42.47;28.20;;;3.30;99.90;;;;;;4942009;29;20452;-65
2020/12/09 08:33:12;;;;;;;43.70;28.23;;;3.30;99.90;;;;;;4946910;28;20797;-65
2020/12/09 08:35:46;;;;;;;45.90;28.40;;;3.40;99.90;;;;;;4947355;29;20236;-65
2020/12/09 08:38:31;;;;;;;46.70;28.63;;;3.40;99.90;;;;;;4935617;28;20540;-70
2020/12/09 08:40:58;;;;;;;44.07;26.47;;;3.40;99.90;;;;;;4937519;28;20463;-66
2020/12/09 08:43:26;;;;;;;37.37;26.37;;;3.50;99.90;;;;;;4948930;28;20482;-65
2020/12/09 08:45:53;;;;;;;40.00;26.70;;;3.50;99.90;;;;;;4942466;28;21328;-66
2020/12/09 08:48:19;;;;;;;44.57;29.10;;;3.60;99.90;;;;;;4937142;28;20469;-66
2020/12/09 08:50:46;;;;;;;42.07;29.00;;;3.50;99.90;;;;;;4943587;29;21309;-66
2020/12/09 08:53:11;;;;;;;41.23;29.43;;;3.50;99.90;;;;;;4948351;28;20515;-66
2020/12/09 08:55:37;;;;;;;41.23;26.80;;;3.60;99.90;;;;;;4947485;28;20974;-65
2020/12/09 08:58:02;;;;;;;38.87;25.17;;;3.60;99.90;;;;;;4937719;28;20555;-65
2020/12/09 09:00:28;;;;;;;42.90;28.33;;;3.60;99.90;;;;;;4936408;29;20220;-65
2020/12/09 09:02:56;;;;;;;47.10;28.37;;;3.60;99.90;;;;;;4943943;28;20684;-66
2020/12/09 09:05:21;;;;;;;40.53;26.97;;;3.70;99.90;;;;;;4939184;28;20530;-66
2020/12/09 09:07:47;;;;;;;39.40;27.50;;;3.70;99.90;;;;;;4944039;29;20579;-65
2020/12/09 09:10:12;;;;;;;40.60;26.70;;;3.60;99.90;;;;;;4939033;28;20260;-66
2020/12/09 09:12:38;;;;;;;45.90;28.10;;;3.60;99.90;;;;;;4936517;28;20185;-66
2020/12/09 09:15:04;;;;;;;45.30;27.77;;;3.60;99.90;;;;;;4930522;29;20674;-66
2020/12/09 09:17:29;;;;;;;46.00;30.37;;;3.60;99.90;;;;;;4935229;29;20185;-66
2020/12/09 09:19:58;;;;;;;39.70;27.50;;;3.60;99.90;;;;;;4936300;29;20539;-66
2020/12/09 09:22:23;;;;;;;41.40;28.07;;;3.70;99.90;;;;;;4933038;29;20185;-66
2020/12/09 09:24:49;;;;;;;50.47;30.40;;;3.70;99.90;;;;;;4942378;28;20469;-66
2020/12/09 09:27:15;;;;;;;40.70;28.67;;;3.80;99.90;;;;;;4936154;29;20191;-66
2020/12/09 09:29:41;;;;;;;41.33;27.83;;;3.80;99.90;;;;;;4937257;28;20217;-66
2020/12/09 09:32:06;;;;;;;48.73;28.43;;;3.80;99.90;;;;;;4934663;28;20598;-66
2020/12/09 09:34:32;;;;;;;43.67;28.50;;;3.80;99.90;;;;;;4934365;29;20436;-66
2020/12/09 09:36:58;;;;;;;44.13;29.03;;;3.80;99.90;;;;;;4948569;28;20184;-66
2020/12/09 09:39:24;;;;;;;39.73;27.80;;;3.80;99.90;;;;;;4947347;28;20455;-66
2020/12/09 09:41:53;;;;;;;42.70;27.33;;;3.80;99.90;;;;;;4950827;29;20432;-66
2020/12/09 09:44:18;;;;;;;43.90;28.53;;;3.90;99.90;;;;;;4939407;29;20587;-66
2020/12/09 09:46:45;;;;;;;43.27;28.60;;;3.80;99.90;;;;;;4946053;28;20440;-65
2020/12/09 09:49:11;;;;;;;43.83;29.00;;;3.80;99.90;;;;;;4942308;29;20231;-66
2020/12/09 09:51:36;;;;;;;51.33;32.40;;;3.80;99.90;;;;;;4941113;28;20939;-66
2020/12/09 09:54:02;;;;;;;48.07;30.80;;;3.90;99.90;;;;;;4948890;29;20192;-66
2020/12/09 09:56:29;;;;;;;46.23;29.80;;;4.00;99.90;;;;;;4945628;29;20213;-66
2020/12/09 09:58:54;;;;;;;44.67;29.50;;;3.90;99.90;;;;;;4947727;28;20251;-66
2020/12/09 10:01:20;;;;;;;51.80;32.33;;;3.90;99.90;;;;;;4946230;28;21170;-66
2020/12/09 10:03:45;;;;;;;46.37;30.37;;;4.00;99.90;;;;;;4948796;28;20181;-66
2020/12/09 10:06:11;;;;;;;46.70;31.77;;;4.00;99.90;;;;;;4947635;28;20215;-66
2020/12/09 10:08:36;;;;;;;45.43;29.87;;;4.00;99.90;;;;;;4948910;28;20264;-66
2020/12/09 10:11:03;;;;;;;48.43;31.67;;;4.10;99.90;;;;;;4949940;28;20639;-66
2020/12/09 10:13:29;;;;;;;44.83;30.00;;;4.10;99.90;;;;;;4951658;28;20201;-66
2020/12/09 10:15:55;;;;;;;48.97;29.13;;;4.10;99.90;;;;;;4942493;28;20481;-66
2020/12/09 10:18:21;;;;;;;47.47;30.40;;;4.10;99.90;;;;;;4931931;29;20184;-66
2020/12/09 10:20:46;;;;;;;42.43;29.53;;;4.10;99.90;;;;;;4950842;29;20487;-66
2020/12/09 10:23:12;;;;;;;41.87;28.03;;;4.10;99.90;;;;;;4942816;28;20197;-65
2020/12/09 10:25:38;;;;;;;46.00;29.50;;;4.10;99.90;;;;;;4939112;29;20589;-66
2020/12/09 10:28:03;;;;;;;42.90;28.70;;;4.00;99.90;;;;;;4933048;29;20515;-66
2020/12/09 10:30:29;;;;;;;45.73;30.03;;;4.00;99.90;;;;;;4939734;29;20228;-66
2020/12/09 10:32:55;;;;;;;44.73;28.30;;;4.00;99.90;;;;;;4951449;28;20185;-66
2020/12/09 10:35:20;;;;;;;41.73;29.00;;;4.00;99.90;;;;;;4938544;28;20446;-66
2020/12/09 10:37:46;;;;;;;40.40;28.70;;;4.10;99.90;;;;;;4931208;29;20687;-66
2020/12/09 10:40:12;;;;;;;43.27;30.13;;;4.20;99.90;;;;;;4941833;28;20212;-66
2020/12/09 10:42:37;;;;;;;46.00;29.10;;;4.20;99.90;;;;;;4950364;29;20192;-66
2020/12/09 10:45:03;;;;;;;40.97;25.30;;;4.20;99.90;;;;;;4946925;29;20674;-66
2020/12/09 10:47:30;;;;;;;43.80;29.50;;;4.20;99.90;;;;;;4946322;28;20627;-65
2020/12/09 10:49:55;;;;;;;44.87;28.27;;;4.20;99.90;;;;;;4945909;28;20998;-66
2020/12/09 10:52:21;;;;;;;40.33;27.67;;;4.20;99.90;;;;;;4935779;29;20445;-66
2020/12/09 10:54:47;;;;;;;40.30;26.70;;;4.20;99.90;;;;;;4941110;29;20181;-66
2020/12/09 10:57:14;;;;;;;42.17;30.13;;;4.20;99.90;;;;;;4942266;28;20477;-66
2020/12/09 10:59:40;;;;;;;39.10;28.13;;;4.30;99.90;;;;;;4931161;29;20206;-66
2020/12/09 11:02:06;;;;;;;42.87;28.73;;;4.20;99.90;;;;;;4939328;29;20476;-66
2020/12/09 11:04:32;;;;;;;40.80;28.47;;;4.30;99.90;;;;;;4950420;28;21035;-66
2020/12/09 11:06:57;;;;;;;43.93;27.40;;;4.30;99.90;;;;;;4947120;29;20547;-66
2020/12/09 11:09:23;;;;;;;42.03;29.67;;;4.30;99.90;;;;;;4948892;28;20292;-66
2020/12/09 11:11:49;;;;;;;38.73;25.73;;;4.30;99.90;;;;;;4938638;28;20722;-67
2020/12/09 11:14:15;;;;;;;37.20;27.50;;;4.30;99.90;;;;;;4933132;29;20193;-68
2020/12/09 11:16:42;;;;;;;40.07;28.27;;;4.30;99.90;;;;;;4939479;28;20559;-66
2020/12/09 11:19:08;;;;;;;36.83;25.33;;;4.20;99.90;;;;;;4946230;28;20436;-66
2020/12/09 11:21:33;;;;;;;36.87;25.53;;;4.20;99.90;;;;;;4939558;28;20447;-65
2020/12/09 11:23:59;;;;;;;38.57;27.93;;;4.20;99.90;;;;;;4937987;29;20442;-65
2020/12/09 11:26:27;;;;;;;40.70;28.40;;;4.10;99.90;;;;;;4945261;28;20185;-64
2020/12/09 11:28:53;;;;;;;41.63;28.37;;;4.00;99.90;;;;;;4949716;28;20223;-63
2020/12/09 11:31:23;;;;;;;41.00;27.60;;;4.00;99.90;;;;;;4944520;28;20487;-64
2020/12/09 11:33:50;;;;;;;34.27;24.57;;;4.00;99.90;;;;;;4948088;28;20436;-65
2020/12/09 11:36:24;;;;;;;44.17;28.57;;;4.00;99.90;;;;;;4941851;28;20942;-65
2020/12/09 11:38:49;;;;;;;44.33;28.13;;;4.00;99.90;;;;;;4933772;29;20437;-65
2020/12/09 11:41:15;;;;;;;41.57;28.93;;;3.90;99.90;;;;;;4943962;28;20465;-65
2020/12/09 11:43:44;;;;;;;43.10;27.77;;;3.90;99.90;;;;;;4944658;28;20185;-65
2020/12/09 11:46:10;;;;;;;49.10;31.10;;;4.00;99.90;;;;;;4945943;29;20185;-65
2020/12/09 11:48:37;;;;;;;42.67;28.20;;;4.00;99.90;;;;;;4933561;28;20983;-65
2020/12/09 11:51:02;;;;;;;47.60;29.77;;;4.00;99.90;;;;;;4946161;29;20874;-65
2020/12/09 11:53:28;;;;;;;42.00;28.80;;;4.00;99.90;;;;;;4943008;28;20444;-65
2020/12/09 11:55:54;;;;;;;46.20;30.10;;;4.00;99.90;;;;;;4940009;29;20184;-65
2020/12/09 11:58:19;;;;;;;51.23;31.20;;;4.00;99.90;;;;;;4949103;28;20597;-65
2020/12/09 12:00:45;;;;;;;43.00;27.93;;;3.90;99.90;;;;;;4950210;28;20200;-65
2020/12/09 12:03:10;;;;;;;41.07;27.83;;;3.80;99.90;;;;;;4934367;28;20220;-65
2020/12/09 12:05:37;;;;;;;50.33;30.90;;;3.80;99.90;;;;;;4957537;28;20195;-65
2020/12/09 12:08:06;;;;;;;47.40;30.23;;;3.80;99.90;;;;;;4946017;28;20300;-65
2020/12/09 12:10:33;;;;;;;40.67;27.67;;;3.90;99.90;;;;;;4931844;29;20831;-65
2020/12/09 12:12:59;;;;;;;49.87;30.10;;;3.90;99.90;;;;;;4931048;29;20440;-65
2020/12/09 12:15:24;;;;;;;48.40;28.70;;;3.90;99.90;;;;;;4932141;29;20449;-66
2020/12/09 12:17:50;;;;;;;45.03;28.37;;;3.80;99.90;;;;;;4940207;28;20449;-66
2020/12/09 12:20:15;;;;;;;59.40;35.60;;;3.90;99.90;;;;;;4942244;28;20225;-66
2020/12/09 12:22:41;;;;;;;42.40;27.73;;;3.90;99.90;;;;;;4936653;29;20200;-66
2020/12/09 12:25:07;;;;;;;40.33;26.57;;;3.90;99.90;;;;;;4941698;29;20188;-66
2020/12/09 12:27:32;;;;;;;47.37;29.37;;;3.90;99.90;;;;;;4933715;29;20611;-66
2020/12/09 12:29:58;;;;;;;53.30;30.87;;;3.90;99.90;;;;;;4942622;29;20285;-66
2020/12/09 12:32:23;;;;;;;48.40;29.87;;;3.90;99.90;;;;;;4930957;29;20205;-66
2020/12/09 12:34:49;;;;;;;46.30;30.17;;;3.90;99.90;;;;;;4937765;29;20195;-65
2020/12/09 12:37:15;;;;;;;49.97;30.50;;;3.90;99.90;;;;;;4933697;29;20197;-66
2020/12/09 12:39:40;;;;;;;49.83;30.87;;;3.90;99.90;;;;;;4948589;29;20238;-66